Time;durP1;ratioP1;P1;durP2;ratioP2;P2;SDS_P1;SDS_P2;PMS_P1;PMS_P2;Temp;Humidity;BMP_temperature;BMP_pressure;BME280_temperature;BME280_humidity;BME280_pressure;Samples;Min_cycle;Max_cycle;Signal;HPM_P1;HPM_P2
2022/11/05 00:11:15;;;;;;;8.57;2.50;;;7.40;99.90;;;;;;6238213;23;20108;-46
2022/11/05 00:16:44;;;;;;;7.93;2.22;;;7.40;99.90;;;;;;6238392;23;20024;-46
2022/11/05 00:19:09;;;;;;;11.73;2.55;;;7.30;99.90;;;;;;6237920;23;20094;-45
2022/11/05 00:27:08;;;;;;;9.95;2.42;;;7.30;99.90;;;;;;6236707;23;20074;-45
2022/11/05 00:29:34;;;;;;;10.82;2.90;;;7.20;99.90;;;;;;6236142;23;20437;-45
2022/11/05 00:32:00;;;;;;;7.05;2.33;;;7.20;99.90;;;;;;6211035;23;20012;-45
2022/11/05 00:34:26;;;;;;;8.65;2.10;;;7.10;99.90;;;;;;6210452;23;20065;-45
2022/11/05 00:36:53;;;;;;;6.18;2.20;;;7.10;99.90;;;;;;6237993;23;20012;-45
2022/11/05 00:39:18;;;;;;;8.07;3.05;;;7.10;99.90;;;;;;6238140;23;20016;-46
2022/11/05 00:44:58;;;;;;;8.10;2.63;;;7.10;99.90;;;;;;6237965;23;20044;-47
2022/11/05 00:49:58;;;;;;;8.50;2.45;;;7.00;99.90;;;;;;6237441;23;20031;-46
2022/11/05 00:55:08;;;;;;;7.65;2.60;;;7.00;99.90;;;;;;6210594;23;20359;-45
2022/11/05 00:57:34;;;;;;;7.60;2.30;;;6.90;99.90;;;;;;6237799;23;20022;-45
2022/11/05 01:00:00;;;;;;;5.57;2.28;;;6.90;99.90;;;;;;6234277;23;20087;-45
2022/11/05 01:02:25;;;;;;;9.77;2.15;;;6.90;99.90;;;;;;6237583;23;20429;-45
2022/11/05 01:04:51;;;;;;;8.75;2.30;;;6.90;99.90;;;;;;6237480;23;20016;-46
2022/11/05 01:07:17;;;;;;;7.65;2.67;;;6.90;99.90;;;;;;6236123;23;20100;-45
2022/11/05 01:09:43;;;;;;;6.85;2.13;;;6.80;99.90;;;;;;6185632;23;20275;-47
2022/11/05 01:12:08;;;;;;;9.95;2.20;;;6.80;99.90;;;;;;6210220;23;20016;-45
2022/11/05 01:14:34;;;;;;;6.63;2.72;;;6.80;99.90;;;;;;6237521;23;20012;-45
2022/11/05 01:17:00;;;;;;;5.38;3.03;;;6.80;99.90;;;;;;6237702;23;20012;-46
2022/11/05 01:19:28;;;;;;;5.03;1.90;;;6.70;99.90;;;;;;6237023;23;20039;-45
2022/11/05 01:21:54;;;;;;;5.78;2.38;;;6.80;99.90;;;;;;6237458;23;20015;-46
2022/11/05 01:24:19;;;;;;;10.73;2.65;;;6.70;99.90;;;;;;6237267;23;20335;-46
2022/11/05 01:26:45;;;;;;;9.57;2.00;;;6.70;99.90;;;;;;6236480;23;20012;-46
2022/11/05 01:29:11;;;;;;;7.18;2.00;;;6.70;99.90;;;;;;6237582;23;20008;-45
2022/11/05 01:31:37;;;;;;;8.35;2.10;;;6.70;99.90;;;;;;6236009;23;20022;-45
2022/11/05 01:34:03;;;;;;;3.97;1.90;;;6.60;99.90;;;;;;6236130;23;20023;-45
2022/11/05 01:36:29;;;;;;;5.38;1.70;;;6.90;99.90;;;;;;6234272;23;20016;-46
2022/11/05 01:38:54;;;;;;;3.10;1.67;;;6.60;99.90;;;;;;6237623;23;20016;-45
2022/11/05 01:41:20;;;;;;;7.38;2.47;;;6.60;99.90;;;;;;6239226;23;20110;-46
2022/11/05 01:43:49;;;;;;;9.32;1.90;;;6.60;99.90;;;;;;6239900;23;20016;-46
2022/11/05 01:46:24;;;;;;;5.97;1.77;;;6.60;99.90;;;;;;6238367;23;20414;-45
2022/11/05 01:48:51;;;;;;;7.50;1.73;;;6.60;99.90;;;;;;6239757;23;20012;-45
2022/11/05 01:51:24;;;;;;;6.63;1.92;;;6.50;99.90;;;;;;6238829;23;20020;-45
2022/11/05 01:54:00;;;;;;;9.23;1.73;;;6.50;99.90;;;;;;6239329;23;20070;-45
2022/11/05 01:56:33;;;;;;;6.18;1.60;;;6.50;99.90;;;;;;6238845;23;20004;-46
2022/11/05 01:59:12;;;;;;;11.50;1.80;;;6.50;99.90;;;;;;6239495;23;20016;-45
2022/11/05 02:01:38;;;;;;;7.20;1.80;;;6.60;99.90;;;;;;6235287;23;20404;-47
2022/11/05 02:04:08;;;;;;;4.32;1.38;;;6.50;99.90;;;;;;6212625;23;20091;-46
2022/11/05 02:06:41;;;;;;;5.63;1.55;;;6.60;99.90;;;;;;6239059;23;20045;-47
2022/11/05 02:09:20;;;;;;;11.65;2.25;;;6.60;99.90;;;;;;6239559;23;20012;-44
2022/11/05 02:11:48;;;;;;;5.50;1.98;;;6.60;99.90;;;;;;6237217;23;20386;-46
2022/11/05 02:14:14;;;;;;;6.63;1.45;;;6.60;99.90;;;;;;6239451;23;20009;-45
2022/11/05 02:17:06;;;;;;;7.72;2.22;;;6.60;99.90;;;;;;6237454;23;20345;-45
2022/11/05 02:19:54;;;;;;;7.43;2.03;;;6.60;99.90;;;;;;6195100;23;20017;-45
2022/11/05 02:22:38;;;;;;;8.00;1.60;;;6.60;99.90;;;;;;6239015;23;20358;-45
2022/11/05 02:25:13;;;;;;;4.70;1.40;;;6.50;99.90;;;;;;6238945;23;20419;-45
2022/11/05 02:27:51;;;;;;;10.63;1.85;;;6.50;99.90;;;;;;6239287;23;20336;-46
2022/11/05 02:30:35;;;;;;;5.95;1.50;;;6.50;99.90;;;;;;6238592;23;20020;-45
2022/11/05 02:33:31;;;;;;;4.10;1.42;;;6.50;99.90;;;;;;6239328;23;20446;-45
2022/11/05 02:36:25;;;;;;;5.60;1.85;;;6.60;99.90;;;;;;6239437;23;20048;-46
2022/11/05 02:39:22;;;;;;;7.63;1.80;;;6.50;99.90;;;;;;6239124;23;20042;-46
2022/11/05 02:42:08;;;;;;;5.10;1.55;;;6.60;99.90;;;;;;6238663;23;20110;-45
2022/11/05 02:45:02;;;;;;;6.72;1.85;;;6.60;99.90;;;;;;6238798;23;20012;-45
2022/11/05 02:47:49;;;;;;;6.53;1.48;;;6.50;99.90;;;;;;6238846;23;20226;-45
2022/11/05 02:50:29;;;;;;;6.93;1.52;;;6.50;99.90;;;;;;6238703;23;20468;-44
2022/11/05 02:53:02;;;;;;;4.20;1.50;;;6.50;99.90;;;;;;6238129;23;20016;-45
2022/11/05 02:55:48;;;;;;;7.60;1.70;;;6.50;99.90;;;;;;6237844;23;20431;-45
2022/11/05 02:58:14;;;;;;;3.58;1.23;;;6.50;99.90;;;;;;6238298;23;20106;-44
2022/11/05 03:00:57;;;;;;;3.20;1.30;;;6.50;99.90;;;;;;6237870;23;20024;-45
2022/11/05 03:03:31;;;;;;;4.32;1.38;;;6.50;99.90;;;;;;6237386;23;20020;-45
2022/11/05 03:06:34;;;;;;;6.35;1.38;;;6.50;99.90;;;;;;6237012;23;20080;-44
2022/11/05 03:09:23;;;;;;;6.43;1.80;;;6.50;99.90;;;;;;6231812;23;20020;-46
2022/11/05 03:12:07;;;;;;;3.80;1.20;;;6.50;99.90;;;;;;6234677;23;20058;-46
2022/11/05 03:14:47;;;;;;;7.53;1.30;;;6.40;99.90;;;;;;6211142;23;20020;-45
2022/11/05 03:17:50;;;;;;;5.40;1.00;;;6.40;99.90;;;;;;6237862;23;20461;-45
2022/11/05 03:20:49;;;;;;;4.82;1.30;;;6.40;99.90;;;;;;6235514;23;20035;-45
2022/11/05 03:23:36;;;;;;;2.72;1.00;;;6.40;99.90;;;;;;6132529;23;20023;-45
2022/11/05 03:26:12;;;;;;;5.57;1.40;;;6.50;99.90;;;;;;6210219;23;20039;-45
2022/11/05 03:28:41;;;;;;;4.28;1.05;;;6.40;99.90;;;;;;6237937;23;20545;-44
2022/11/05 03:31:10;;;;;;;5.97;1.52;;;6.40;99.90;;;;;;6237441;23;20016;-45
2022/11/05 03:33:38;;;;;;;3.85;1.05;;;6.40;99.90;;;;;;6238183;23;20091;-45
2022/11/05 03:36:14;;;;;;;3.85;1.30;;;6.40;99.90;;;;;;6211559;23;20016;-45
2022/11/05 03:38:45;;;;;;;2.58;1.23;;;6.40;99.90;;;;;;6238287;23;20287;-45
2022/11/05 03:41:14;;;;;;;3.30;1.45;;;6.40;99.90;;;;;;6238434;23;20299;-46
2022/11/05 03:43:48;;;;;;;5.97;1.45;;;6.50;99.90;;;;;;6238167;23;20438;-45
2022/11/05 03:46:23;;;;;;;4.78;1.60;;;6.50;99.90;;;;;;6238102;23;20051;-46
2022/11/05 03:48:54;;;;;;;4.07;1.25;;;6.50;99.90;;;;;;6237736;23;20050;-45
2022/11/05 03:51:29;;;;;;;6.50;1.40;;;6.50;99.90;;;;;;6209926;23;20051;-44
2022/11/05 03:53:58;;;;;;;3.78;1.38;;;6.60;99.90;;;;;;6237324;23;20141;-46
2022/11/05 03:56:30;;;;;;;5.50;1.52;;;6.60;99.90;;;;;;6237330;23;20104;-45
2022/11/05 03:58:58;;;;;;;5.03;1.42;;;6.70;99.90;;;;;;6238063;23;20419;-45
2022/11/05 04:01:24;;;;;;;4.88;1.40;;;6.70;99.90;;;;;;6210012;23;20471;-45
2022/11/05 04:03:50;;;;;;;9.73;1.83;;;6.80;99.90;;;;;;6237856;23;20016;-45
2022/11/05 04:14:30;;;;;;;3.42;1.60;;;6.90;99.90;;;;;;6237615;23;20062;-45
2022/11/05 04:17:05;;;;;;;6.63;1.20;;;6.90;99.90;;;;;;6237398;23;20016;-45
2022/11/05 04:25:16;;;;;;;4.72;1.67;;;7.10;99.90;;;;;;6237284;23;20182;-46
2022/11/05 04:27:43;;;;;;;4.57;1.35;;;7.10;99.90;;;;;;6209439;23;20438;-45
2022/11/05 04:30:18;;;;;;;7.45;1.60;;;7.20;99.90;;;;;;6236102;23;20394;-45
2022/11/05 04:32:57;;;;;;;6.63;1.83;;;7.20;99.90;;;;;;6209909;23;20034;-45
2022/11/05 04:35:24;;;;;;;4.80;1.65;;;7.30;99.90;;;;;;6208551;23;20024;-45
2022/11/05 04:37:50;;;;;;;5.30;1.77;;;7.30;99.90;;;;;;6184297;23;20016;-44
2022/11/05 04:40:16;;;;;;;3.97;1.70;;;7.30;99.90;;;;;;6236938;23;20107;-46
2022/11/05 04:42:42;;;;;;;8.38;1.67;;;7.30;99.90;;;;;;6237371;23;20039;-45
2022/11/05 04:45:07;;;;;;;7.68;1.77;;;7.30;99.90;;;;;;6237938;23;20169;-45
2022/11/05 04:47:34;;;;;;;4.10;1.65;;;7.40;99.90;;;;;;6237719;23;20135;-45
2022/11/05 04:50:00;;;;;;;3.88;1.55;;;7.40;99.90;;;;;;6237174;23;20012;-46
2022/11/05 04:52:26;;;;;;;2.70;1.60;;;7.40;99.90;;;;;;6236912;23;20046;-45
2022/11/05 04:54:52;;;;;;;3.55;1.65;;;7.40;99.90;;;;;;6237633;23;20244;-45
2022/11/05 04:57:18;;;;;;;4.22;1.70;;;7.40;99.90;;;;;;6236848;23;20026;-46
2022/11/05 04:59:46;;;;;;;4.28;1.75;;;7.30;99.90;;;;;;6237192;23;20012;-46
2022/11/05 05:02:12;;;;;;;4.75;1.88;;;7.30;99.90;;;;;;6236993;23;20047;-45
2022/11/05 05:04:38;;;;;;;10.02;2.13;;;7.30;99.90;;;;;;6237406;23;20031;-45
2022/11/05 05:07:04;;;;;;;5.78;1.77;;;7.30;99.90;;;;;;6237243;23;20016;-44
2022/11/05 05:09:29;;;;;;;3.80;1.80;;;7.30;99.90;;;;;;6238096;23;20012;-45
2022/11/05 05:11:55;;;;;;;4.40;2.30;;;7.20;99.90;;;;;;6237000;23;20139;-45
2022/11/05 05:14:21;;;;;;;6.32;2.22;;;7.30;99.90;;;;;;6237032;23;20012;-45
2022/11/05 05:16:47;;;;;;;5.35;2.05;;;7.30;99.90;;;;;;6209513;23;20016;-45
2022/11/05 05:19:13;;;;;;;7.25;2.13;;;7.30;99.90;;;;;;6209184;23;20102;-45
2022/11/05 05:21:39;;;;;;;7.65;2.42;;;7.30;99.90;;;;;;6209186;23;20030;-45
2022/11/05 05:24:16;;;;;;;6.63;1.98;;;7.30;99.90;;;;;;6235615;23;20017;-45
2022/11/05 05:26:44;;;;;;;6.85;2.75;;;7.20;99.90;;;;;;6236732;23;20016;-45
2022/11/05 05:29:10;;;;;;;4.97;2.28;;;7.20;99.90;;;;;;6237382;23;20078;-46
2022/11/05 05:31:36;;;;;;;7.22;2.80;;;7.20;99.90;;;;;;6237126;23;20150;-45
2022/11/05 05:34:03;;;;;;;7.65;2.83;;;7.20;99.90;;;;;;6237429;23;20011;-45
2022/11/05 05:36:29;;;;;;;13.40;2.95;;;7.10;99.90;;;;;;6236202;23;20066;-45
2022/11/05 05:38:56;;;;;;;7.80;3.25;;;7.10;99.90;;;;;;6237080;23;20008;-45
2022/11/05 05:41:22;;;;;;;4.47;3.15;;;7.00;99.90;;;;;;6237287;23;20290;-45
2022/11/05 05:43:48;;;;;;;5.78;3.33;;;7.00;99.90;;;;;;6237866;23;20428;-45
2022/11/05 05:46:16;;;;;;;6.43;3.30;;;7.10;99.90;;;;;;6210099;23;20020;-45
2022/11/05 05:48:48;;;;;;;6.95;3.63;;;7.00;99.90;;;;;;6185436;23;20460;-45
2022/11/05 05:51:14;;;;;;;11.27;4.30;;;7.10;99.90;;;;;;6236694;23;20093;-45
2022/11/05 05:53:39;;;;;;;9.27;3.80;;;7.00;99.90;;;;;;6237364;23;20454;-45
2022/11/05 05:56:06;;;;;;;8.35;3.85;;;7.00;99.90;;;;;;6237466;23;20040;-45
2022/11/05 05:58:37;;;;;;;5.47;3.50;;;6.90;99.90;;;;;;6237337;23;20034;-45
2022/11/05 06:01:10;;;;;;;8.32;3.70;;;6.90;99.90;;;;;;6209734;23;20020;-46
2022/11/05 06:03:35;;;;;;;7.18;3.33;;;6.80;99.90;;;;;;6236639;23;20051;-44
2022/11/05 06:06:07;;;;;;;5.28;3.78;;;6.80;99.90;;;;;;6184476;23;20135;-47
2022/11/05 06:08:34;;;;;;;8.98;3.78;;;6.70;99.90;;;;;;6236878;23;20020;-45
2022/11/05 06:11:01;;;;;;;7.38;3.50;;;6.70;99.90;;;;;;6209372;23;20019;-46
2022/11/05 06:13:27;;;;;;;6.03;3.35;;;6.70;99.90;;;;;;6235967;23;20450;-45
2022/11/05 06:15:58;;;;;;;5.30;3.47;;;6.70;99.90;;;;;;6234354;23;20093;-45
2022/11/05 06:18:23;;;;;;;8.10;3.45;;;6.70;99.90;;;;;;6209308;23;20046;-45
2022/11/05 06:20:49;;;;;;;8.07;3.65;;;6.70;99.90;;;;;;6236107;23;20009;-46
2022/11/05 06:23:15;;;;;;;9.65;4.13;;;6.70;99.90;;;;;;6234667;23;20030;-45
2022/11/05 06:25:41;;;;;;;6.25;3.65;;;6.60;99.90;;;;;;6235893;23;20020;-44
2022/11/05 06:28:07;;;;;;;7.03;4.55;;;6.70;99.90;;;;;;6237699;23;20021;-45
2022/11/05 06:30:33;;;;;;;7.70;3.80;;;6.60;99.90;;;;;;6238338;23;20020;-45
2022/11/05 06:33:04;;;;;;;9.15;4.50;;;6.70;99.90;;;;;;6211668;23;20023;-46
2022/11/05 06:35:31;;;;;;;8.13;4.60;;;6.70;99.90;;;;;;6239154;23;20087;-48
2022/11/05 06:38:00;;;;;;;;;;;6.70;99.90;;;;;;6240014;23;20016;-47
2022/11/05 06:40:26;;;;;;;;;;;6.60;99.90;;;;;;6240061;23;19912;-48
2022/11/05 06:42:53;;;;;;;6.75;3.70;;;6.60;99.90;;;;;;6239864;23;20253;-46
2022/11/05 06:45:19;;;;;;;8.75;4.78;;;6.60;99.90;;;;;;6212522;23;20267;-45
2022/11/05 06:47:45;;;;;;;6.60;4.78;;;6.60;99.90;;;;;;6212679;23;20023;-48
2022/11/05 06:50:11;;;;;;;19.42;5.70;;;6.60;99.90;;;;;;6238761;23;20016;-45
2022/11/05 06:52:37;;;;;;;7.05;5.20;;;6.60;99.90;;;;;;6239280;23;20016;-45
2022/11/05 06:55:03;;;;;;;10.52;5.28;;;6.60;99.90;;;;;;6239274;23;20031;-46
2022/11/05 06:57:29;;;;;;;6.78;4.60;;;6.70;99.90;;;;;;6239630;23;20080;-45
2022/11/05 06:59:55;;;;;;;8.57;4.82;;;6.70;99.90;;;;;;6238653;23;20290;-47
2022/11/05 07:02:21;;;;;;;10.68;4.45;;;6.60;99.90;;;;;;6239362;23;20077;-46
2022/11/05 07:04:49;;;;;;;9.18;4.72;;;6.70;99.90;;;;;;6212529;23;20019;-45
2022/11/05 07:07:14;;;;;;;8.05;4.47;;;6.60;99.90;;;;;;6211945;23;20026;-45
2022/11/05 07:09:42;;;;;;;5.90;4.03;;;6.60;99.90;;;;;;6239490;23;20012;-45
2022/11/05 07:12:08;;;;;;;8.80;3.83;;;6.60;99.90;;;;;;6238659;23;20112;-46
2022/11/05 07:14:34;;;;;;;7.38;3.90;;;6.60;99.90;;;;;;6238720;23;20015;-45
2022/11/05 07:17:00;;;;;;;5.93;3.83;;;6.60;99.90;;;;;;6238433;23;20070;-47
2022/11/05 07:19:26;;;;;;;6.25;3.83;;;6.70;99.90;;;;;;6210213;23;20023;-48
2022/11/05 07:21:52;;;;;;;8.60;4.07;;;6.70;99.90;;;;;;6237838;23;20020;-45
2022/11/05 07:24:18;;;;;;;6.45;3.75;;;6.80;99.90;;;;;;6211399;23;20020;-46
2022/11/05 07:26:43;;;;;;;5.53;3.50;;;6.80;99.90;;;;;;6238166;23;20031;-45
2022/11/05 07:29:09;;;;;;;7.05;3.72;;;6.90;99.90;;;;;;6239126;23;20036;-46
2022/11/05 07:31:35;;;;;;;6.90;3.60;;;6.90;99.90;;;;;;6237829;23;20019;-47
2022/11/05 07:34:01;;;;;;;8.20;3.60;;;7.00;99.90;;;;;;6238227;23;20012;-46
2022/11/05 07:36:28;;;;;;;9.15;3.28;;;7.10;99.90;;;;;;6236823;23;20012;-46
2022/11/05 07:38:54;;;;;;;4.95;3.58;;;7.10;99.90;;;;;;6238305;23;20009;-49
2022/11/05 07:41:19;;;;;;;6.88;3.40;;;7.20;99.90;;;;;;6211297;23;20028;-48
2022/11/05 07:43:45;;;;;;;7.40;3.60;;;7.20;99.90;;;;;;6211512;23;20024;-46
2022/11/05 07:46:11;;;;;;;10.27;3.85;;;7.20;99.90;;;;;;6238318;23;20008;-46
2022/11/05 07:48:37;;;;;;;7.57;3.75;;;7.30;99.90;;;;;;6211435;23;20027;-45
2022/11/05 07:51:03;;;;;;;7.55;3.47;;;7.30;99.90;;;;;;6237434;23;20020;-45
2022/11/05 07:53:28;;;;;;;9.63;4.10;;;7.30;99.90;;;;;;6238100;23;20023;-46
2022/11/05 07:55:56;;;;;;;7.30;3.63;;;7.40;99.90;;;;;;6236010;23;20468;-45
2022/11/05 07:58:22;;;;;;;8.50;3.95;;;7.50;99.90;;;;;;6237646;23;20055;-45
2022/11/05 08:00:47;;;;;;;5.90;4.03;;;7.60;99.90;;;;;;6205267;23;20533;-45
2022/11/05 08:03:17;;;;;;;6.45;3.72;;;7.60;99.90;;;;;;6205568;23;20043;-45
2022/11/05 08:05:45;;;;;;;8.25;4.05;;;7.60;99.90;;;;;;6206035;23;20020;-46
2022/11/05 08:08:14;;;;;;;8.35;3.78;;;7.70;99.90;;;;;;6207704;23;20349;-44
2022/11/05 08:10:40;;;;;;;6.13;3.50;;;7.80;99.90;;;;;;6208115;23;20078;-46
2022/11/05 08:13:07;;;;;;;5.70;3.65;;;7.80;99.90;;;;;;6207395;23;20028;-45
2022/11/05 08:15:33;;;;;;;8.80;4.28;;;7.90;99.90;;;;;;6207076;23;20029;-45
2022/11/05 08:17:59;;;;;;;8.02;3.80;;;7.90;99.90;;;;;;6208129;23;20020;-45
2022/11/05 08:20:26;;;;;;;8.00;3.83;;;8.00;99.90;;;;;;6206799;23;20469;-45
2022/11/05 08:22:53;;;;;;;8.98;4.00;;;8.10;99.90;;;;;;6207754;23;20028;-45
2022/11/05 08:25:19;;;;;;;8.47;3.50;;;8.20;99.90;;;;;;6207990;23;20091;-45
2022/11/05 08:27:44;;;;;;;5.88;3.30;;;8.30;99.90;;;;;;6205696;23;20948;-45
2022/11/05 08:30:11;;;;;;;5.78;3.50;;;8.40;99.90;;;;;;6180282;23;20013;-45
2022/11/05 08:32:37;;;;;;;6.85;3.65;;;8.40;99.90;;;;;;6207780;23;20025;-46
2022/11/05 08:35:03;;;;;;;6.70;3.25;;;8.50;99.90;;;;;;6205888;23;20541;-46
2022/11/05 08:37:29;;;;;;;6.57;3.20;;;8.70;99.90;;;;;;6207528;23;20013;-46
2022/11/05 08:39:55;;;;;;;5.72;3.10;;;8.70;99.90;;;;;;6204538;23;20032;-48
2022/11/05 08:42:21;;;;;;;4.60;2.80;;;8.90;99.90;;;;;;6207705;23;20020;-46
2022/11/05 08:44:47;;;;;;;6.07;3.17;;;9.00;99.90;;;;;;6207293;23;20083;-46
2022/11/05 08:47:12;;;;;;;6.22;3.28;;;9.10;99.90;;;;;;6205770;23;20371;-45
2022/11/05 08:49:38;;;;;;;4.28;2.80;;;9.30;99.90;;;;;;6207636;23;20459;-45
2022/11/05 08:52:04;;;;;;;6.93;3.45;;;9.40;99.90;;;;;;6205047;23;20451;-46
2022/11/05 08:54:30;;;;;;;6.40;2.85;;;9.60;99.90;;;;;;6205871;23;20044;-46
2022/11/05 08:56:56;;;;;;;5.25;2.78;;;9.80;99.90;;;;;;6205913;23;20055;-46
2022/11/05 08:59:22;;;;;;;6.13;2.60;;;10.00;99.90;;;;;;6206658;23;20263;-46
2022/11/05 09:01:49;;;;;;;6.05;2.70;;;10.10;99.90;;;;;;6233587;23;20442;-48
2022/11/05 09:04:15;;;;;;;5.18;2.75;;;10.20;99.90;;;;;;6237752;23;20462;-46
2022/11/05 09:06:41;;;;;;;4.18;2.40;;;10.30;99.90;;;;;;6237213;23;20083;-47
2022/11/05 09:09:06;;;;;;;5.03;2.53;;;10.20;99.90;;;;;;6238215;23;20012;-46
2022/11/05 09:11:32;;;;;;;4.97;2.47;;;10.20;99.90;;;;;;6238053;23;20837;-46
2022/11/05 09:13:58;;;;;;;5.85;2.47;;;10.40;99.90;;;;;;6237778;23;20016;-47
2022/11/05 09:16:25;;;;;;;5.28;2.22;;;10.50;99.90;;;;;;6237605;23;20008;-46
2022/11/05 09:18:51;;;;;;;4.72;2.55;;;10.60;99.90;;;;;;6237531;23;20013;-47
2022/11/05 09:21:18;;;;;;;9.13;2.45;;;10.70;99.90;;;;;;6236799;23;20350;-47
2022/11/05 09:23:45;;;;;;;4.45;2.72;;;10.80;99.90;;;;;;6209746;23;20095;-46
2022/11/05 09:26:12;;;;;;;5.30;2.33;;;10.80;99.90;;;;;;6237061;23;20061;-46
2022/11/05 09:28:38;;;;;;;4.40;2.60;;;10.90;99.90;;;;;;6237749;23;20052;-47
2022/11/05 09:31:06;;;;;;;6.38;2.30;;;11.00;99.90;;;;;;6237462;23;20637;-46
2022/11/05 09:33:33;;;;;;;6.10;2.60;;;11.00;99.90;;;;;;6238259;23;20012;-46
2022/11/05 09:35:59;;;;;;;5.25;1.90;;;11.00;99.90;;;;;;6237727;23;20070;-47
2022/11/05 09:38:25;;;;;;;3.35;1.98;;;10.90;99.90;;;;;;6237470;23;20074;-46
2022/11/05 09:40:54;;;;;;;3.72;2.05;;;10.90;99.90;;;;;;6238112;23;20012;-47
2022/11/05 09:43:23;;;;;;;3.58;1.80;;;11.00;99.90;;;;;;6210914;23;20058;-46
2022/11/05 09:45:53;;;;;;;3.30;2.13;;;11.20;99.90;;;;;;6237463;23;20059;-47
2022/11/05 09:48:23;;;;;;;5.70;2.15;;;11.30;99.90;;;;;;6210891;23;20020;-46
2022/11/05 09:50:52;;;;;;;4.55;1.65;;;11.50;99.90;;;;;;6210348;23;20530;-48
2022/11/05 09:53:20;;;;;;;4.57;2.53;;;11.60;99.90;;;;;;6237749;23;20023;-47
2022/11/05 09:55:55;;;;;;;3.47;1.88;;;11.60;99.90;;;;;;6210146;23;20046;-46
2022/11/05 09:58:37;;;;;;;2.85;1.65;;;11.60;99.90;;;;;;6237722;23;20012;-47
2022/11/05 10:01:09;;;;;;;4.40;1.45;;;11.50;99.90;;;;;;6238112;23;20024;-47
2022/11/05 10:03:42;;;;;;;6.28;1.98;;;11.60;99.90;;;;;;6239646;23;20016;-47
2022/11/05 10:06:12;;;;;;;5.10;1.88;;;11.70;99.90;;;;;;6238353;23;20012;-47
2022/11/05 10:08:42;;;;;;;6.25;1.63;;;11.70;99.90;;;;;;6238484;23;20012;-47
2022/11/05 10:11:23;;;;;;;4.25;1.70;;;11.70;99.90;;;;;;6239542;23;20040;-46
2022/11/05 10:14:15;;;;;;;3.17;1.42;;;11.70;99.90;;;;;;6211919;23;20046;-48
2022/11/05 10:16:46;;;;;;;4.13;1.85;;;11.70;99.90;;;;;;6228557;23;20358;-46
2022/11/05 10:19:26;;;;;;;4.80;2.35;;;11.70;99.90;;;;;;6234565;23;20347;-46
2022/11/05 10:22:09;;;;;;;4.35;1.90;;;11.70;99.90;;;;;;6237865;23;20016;-47
2022/11/05 10:24:36;;;;;;;6.00;2.00;;;11.70;99.90;;;;;;6239164;23;20016;-48
2022/11/05 10:27:04;;;;;;;6.03;2.42;;;11.60;99.90;;;;;;6238917;23;20121;-49
2022/11/05 10:29:32;;;;;;;4.30;1.75;;;11.70;99.90;;;;;;6239435;23;20035;-46
2022/11/05 10:32:02;;;;;;;4.47;2.30;;;11.70;99.90;;;;;;6211622;23;20842;-47
2022/11/05 10:34:32;;;;;;;3.92;2.03;;;11.70;99.90;;;;;;6239644;23;20809;-48
2022/11/05 10:36:58;;;;;;;4.38;2.50;;;11.80;99.90;;;;;;6238669;23;20012;-48
2022/11/05 10:39:26;;;;;;;4.53;2.10;;;11.90;99.90;;;;;;6237949;23;20016;-46
2022/11/05 10:42:01;;;;;;;6.18;2.30;;;12.00;99.90;;;;;;6239417;23;20048;-47
2022/11/05 10:44:34;;;;;;;3.47;2.50;;;12.00;99.90;;;;;;6212306;23;20022;-47
2022/11/05 10:47:20;;;;;;;3.65;2.17;;;12.00;99.90;;;;;;6239578;23;20024;-47
2022/11/05 10:49:57;;;;;;;4.03;1.80;;;12.00;99.90;;;;;;6238836;23;20539;-49
2022/11/05 10:52:54;;;;;;;6.10;1.80;;;12.10;99.90;;;;;;6238653;23;20024;-48
2022/11/05 10:55:28;;;;;;;5.70;2.00;;;12.10;99.90;;;;;;6232119;23;20437;-46
2022/11/05 10:57:56;;;;;;;3.70;1.83;;;12.30;99.90;;;;;;6211227;23;20016;-46
2022/11/05 11:00:23;;;;;;;;;;;12.40;99.90;;;;;;6238879;23;20016;-46
2022/11/05 11:02:56;;;;;;;3.60;1.80;;;12.40;99.90;;;;;;6238452;23;19911;-48
2022/11/05 11:05:34;;;;;;;3.67;2.25;;;12.40;99.90;;;;;;6238536;23;20016;-48
2022/11/05 11:08:16;;;;;;;3.88;1.80;;;12.40;99.90;;;;;;6238775;23;20019;-51
2022/11/05 11:11:02;;;;;;;3.55;1.35;;;12.30;99.90;;;;;;6211866;23;20020;-46
2022/11/05 11:13:50;;;;;;;6.57;1.88;;;12.20;99.90;;;;;;6238006;23;20016;-47
2022/11/05 11:16:20;;;;;;;4.63;1.50;;;12.20;99.90;;;;;;6238183;23;20039;-47
2022/11/05 11:18:57;;;;;;;4.00;1.50;;;12.20;99.90;;;;;;6237694;23;20853;-46
2022/11/05 11:21:23;;;;;;;7.25;1.77;;;12.20;99.90;;;;;;6232612;23;20091;-47
2022/11/05 11:23:57;;;;;;;4.07;2.00;;;12.30;99.90;;;;;;6210229;23;20137;-47
2022/11/05 11:26:34;;;;;;;4.65;1.80;;;12.30;99.90;;;;;;6211454;23;20015;-47
2022/11/05 11:29:23;;;;;;;4.22;1.60;;;12.30;99.90;;;;;;6238440;23;20054;-48
2022/11/05 11:31:53;;;;;;;;;;;12.40;99.90;;;;;;6238054;23;20047;-48
2022/11/05 11:34:27;;;;;;;4.65;1.50;;;12.40;99.90;;;;;;6210957;23;19957;-48
2022/11/05 11:36:58;;;;;;;4.47;1.20;;;12.60;99.90;;;;;;6237278;23;20012;-48
2022/11/05 11:39:27;;;;;;;4.75;1.10;;;12.80;99.90;;;;;;6236965;23;20087;-49
2022/11/05 11:41:59;;;;;;;2.78;1.10;;;12.90;99.90;;;;;;6238374;23;20609;-47
2022/11/05 11:44:33;;;;;;;6.07;1.42;;;12.90;99.90;;;;;;6238167;23;20020;-47
2022/11/05 11:47:09;;;;;;;4.15;1.73;;;13.00;99.90;;;;;;6209915;23;20019;-48
2022/11/05 11:49:41;;;;;;;2.80;1.02;;;13.10;99.90;;;;;;6210235;23;20020;-48
2022/11/05 11:52:31;;;;;;;2.05;1.25;;;13.20;99.90;;;;;;6211069;23;20106;-48
2022/11/05 11:55:12;;;;;;;1.83;0.93;;;13.30;99.90;;;;;;6238130;23;20012;-50
2022/11/05 11:57:52;;;;;;;5.82;1.20;;;13.30;99.90;;;;;;6211212;23;20012;-48
2022/11/05 12:00:19;;;;;;;5.43;1.05;;;13.40;99.90;;;;;;6237625;23;20608;-47
2022/11/05 12:02:59;;;;;;;5.40;1.30;;;13.40;99.90;;;;;;6238532;23;20018;-48
2022/11/05 12:05:34;;;;;;;2.65;0.80;;;13.40;99.90;;;;;;6233917;23;20016;-48
2022/11/05 12:08:33;;;;;;;3.10;1.63;;;13.30;99.90;;;;;;6236932;23;20012;-47
2022/11/05 12:11:07;;;;;;;6.18;1.83;;;13.30;99.90;;;;;;6237646;23;20022;-47
2022/11/05 12:13:42;;;;;;;3.53;1.00;;;13.30;99.90;;;;;;6211047;23;20020;-47
2022/11/05 12:16:39;;;;;;;4.82;1.20;;;13.10;99.90;;;;;;6237332;23;20016;-48
2022/11/05 12:19:33;;;;;;;2.67;1.13;;;12.90;99.90;;;;;;6236241;23;20012;-47
2022/11/05 12:22:09;;;;;;;2.97;1.13;;;12.80;99.90;;;;;;6208267;23;20024;-47
2022/11/05 12:24:54;;;;;;;4.68;0.98;;;12.60;99.90;;;;;;6238198;23;20046;-48
2022/11/05 12:27:51;;;;;;;4.55;1.45;;;12.50;99.90;;;;;;6210138;23;20620;-48
2022/11/05 12:30:19;;;;;;;4.10;1.10;;;12.50;99.90;;;;;;6235535;23;20094;-46
2022/11/05 12:33:26;;;;;;;3.33;0.90;;;12.40;99.90;;;;;;6232976;23;20012;-49
2022/11/05 12:36:08;;;;;;;7.85;1.05;;;12.30;99.90;;;;;;6184318;23;20077;-47
2022/11/05 12:39:03;;;;;;;2.60;0.70;;;12.20;99.90;;;;;;6237620;23;20016;-47
2022/11/05 12:41:41;;;;;;;4.28;0.52;;;12.10;99.90;;;;;;6237166;23;20039;-49
2022/11/05 12:44:20;;;;;;;3.67;0.77;;;12.00;99.90;;;;;;6237653;23;20008;-47
2022/11/05 12:47:09;;;;;;;1.25;0.60;;;11.90;99.90;;;;;;6237230;23;20012;-47
2022/11/05 12:49:41;;;;;;;2.30;0.70;;;11.80;99.90;;;;;;6237492;23;20012;-47
2022/11/05 12:52:51;;;;;;;4.45;0.90;;;11.80;99.90;;;;;;6236996;23;20116;-48
2022/11/05 12:55:21;;;;;;;2.25;0.63;;;11.70;99.90;;;;;;6184741;23;20012;-47
2022/11/05 12:57:50;;;;;;;1.73;0.50;;;11.70;99.90;;;;;;6209759;23;20008;-48
2022/11/05 13:00:19;;;;;;;3.80;0.70;;;11.70;99.90;;;;;;6204335;23;20017;-46
2022/11/05 13:02:54;;;;;;;1.60;0.65;;;11.60;99.90;;;;;;6206679;23;20024;-48
2022/11/05 13:05:30;;;;;;;3.90;0.88;;;11.60;99.90;;;;;;6205996;23;20546;-48
2022/11/05 13:08:13;;;;;;;1.48;0.52;;;11.60;99.90;;;;;;6205291;23;20050;-48
2022/11/05 13:10:57;;;;;;;3.60;1.00;;;11.50;99.90;;;;;;6205187;23;20454;-46
2022/11/05 13:13:36;;;;;;;2.30;0.80;;;11.50;99.90;;;;;;6206740;23;20099;-47
2022/11/05 13:16:36;;;;;;;2.65;0.88;;;11.50;99.90;;;;;;6206874;23;20062;-48
2022/11/05 13:19:44;;;;;;;3.20;0.82;;;11.40;99.90;;;;;;6180866;23;20024;-45
2022/11/05 13:22:32;;;;;;;2.17;0.77;;;11.30;99.90;;;;;;6197522;23;20028;-47
2022/11/05 13:25:26;;;;;;;2.35;0.57;;;11.10;99.90;;;;;;6204520;23;20078;-47
2022/11/05 13:28:11;;;;;;;3.05;0.90;;;11.00;99.90;;;;;;6203874;23;20670;-47
2022/11/05 13:30:45;;;;;;;3.95;0.63;;;10.90;99.90;;;;;;6204590;23;20071;-47
2022/11/05 13:33:33;;;;;;;1.58;0.82;;;10.90;99.90;;;;;;6206127;23;20032;-47
2022/11/05 13:39:02;;;;;;;4.18;1.00;;;10.80;99.90;;;;;;6206921;23;19912;-49
2022/11/05 13:42:01;;;;;;;1.85;0.85;;;10.80;99.90;;;;;;6207489;23;20019;-47
2022/11/05 13:44:42;;;;;;;1.50;0.52;;;10.90;99.90;;;;;;6207180;23;20027;-47
2022/11/05 13:47:36;;;;;;;3.30;0.65;;;10.90;99.90;;;;;;6206472;23;20009;-48
2022/11/05 13:50:16;;;;;;;3.53;0.75;;;10.90;99.90;;;;;;6204092;23;20150;-46
2022/11/05 13:52:51;;;;;;;5.97;2.70;;;10.90;99.90;;;;;;6203677;23;20028;-48
2022/11/05 13:55:46;;;;;;;4.03;1.40;;;10.90;99.90;;;;;;6206788;23;20017;-47
2022/11/05 13:58:56;;;;;;;2.78;1.48;;;10.90;99.90;;;;;;6172779;23;20080;-48
2022/11/05 14:01:30;;;;;;;2.20;0.90;;;10.90;99.90;;;;;;6211779;23;20070;-47
2022/11/05 14:03:56;;;;;;;1.77;0.98;;;10.80;99.90;;;;;;6236515;23;20016;-48